Home   Weather   Mackinac Island   Past weeks
Flag for USA

Past Weather in Mackinac Island, Michigan, USA — Yesterday and Last 2 Weeks

Currently: 43 °F. Clear. (Weather station: Schoolcraft County Airport, USA). See more current weather

Past Weather in Mackinac Island — Graph

°F

Mackinac Island Temperature Yesterday

Maximum temperature yesterday: 56 °F (at 3:35 pm)
Minimum temperature yesterday: 39 °F (at 12:15 am)
Average temperature yesterday: 48 °F

High & Low Weather Summary for the Past Weeks

 TemperatureHumidityPressure
High71 °F (Oct 10, 4:55 pm)98% (Oct 2, 5:15 am)30.37 "Hg (Oct 2, 5:15 am)
Low38 °F (Oct 15, 6:35 am)54% (Oct 14, 1:55 pm)29.63 "Hg (Oct 11, 3:55 am)
Average60 °F89%29.94 "Hg
* Reported Oct 2 2:15 am — Oct 17 2:15 am, Mackinac Island. Weather by CustomWeather, © 2021

Note: Actual official high and low records may vary slightly from our data, if they occured in-between our weather recording intervals... More about our weather records

Mackinac Island Weather History for the Previous 24 Hours

Scroll right to see more
 ConditionsComfort  
Time TempWeatherWind HumidityBarometerVisibility
2:15 am
Sun, Oct 17
46 °FPartly cloudy.6 mph71%29.89 "Hg10 mi
1:55 am46 °FPartly cloudy.7 mph70%29.89 "Hg10 mi
1:35 am45 °FClear.7 mph71%29.89 "Hg10 mi
1:15 am46 °FClear.7 mph70%29.89 "Hg10 mi
12:55 am46 °FClear.10 mph69%29.89 "Hg10 mi
12:35 am45 °FPassing clouds.7 mph70%29.89 "Hg10 mi
12:15 am46 °FClear.8 mph69%29.89 "Hg10 mi
11:55 pm
Sat, Oct 16
47 °FClear.8 mph66%29.89 "Hg10 mi
11:35 pm47 °FPassing clouds.9 mph64%29.89 "Hg10 mi
11:15 pm48 °FPartly cloudy.7 mph64%29.89 "Hg10 mi
10:55 pm48 °FPassing clouds.10 mph63%29.89 "Hg10 mi
10:35 pm47 °FClear.10 mph65%29.89 "Hg10 mi
10:15 pm48 °FClear.12 mph64%29.89 "Hg10 mi
9:55 pm47 °FClear.9 mph66%29.89 "Hg10 mi
9:35 pm47 °FClear.9 mph67%29.89 "Hg10 mi
9:15 pm47 °FPassing clouds.7 mph69%29.89 "Hg10 mi
8:55 pm47 °FPassing clouds.8 mph74%29.89 "Hg10 mi
8:35 pm46 °FPassing clouds.5 mph78%29.89 "Hg10 mi
8:15 pm46 °FClear.6 mph81%29.88 "Hg10 mi
7:55 pm47 °FPartly cloudy.3 mph86%29.88 "Hg10 mi
7:35 pm48 °FLight rain. Overcast.No wind85%29.88 "Hg10 mi
7:15 pm48 °FOvercast.5 mph84%29.87 "Hg10 mi
6:55 pm49 °FMore clouds than sun.5 mph83%29.86 "Hg10 mi
6:35 pm49 °FCloudy.5 mph84%29.86 "Hg10 mi
6:15 pm49 °FCloudy.7 mph85%29.85 "Hg10 mi
5:55 pm49 °FMostly cloudy.7 mph86%29.85 "Hg10 mi
5:35 pm49 °FCloudy.8 mph87%29.84 "Hg10 mi
5:15 pm49 °FLight rain. Mostly cloudy.9 mph80%29.84 "Hg10 mi
4:35 pm55 °FCloudy.9 mph58%29.82 "Hg10 mi
3:55 pm54 °FLight rain. Cloudy.12 mph62%29.80 "Hg10 mi
3:35 pm56 °FMore clouds than sun.10 mph59%29.80 "Hg10 mi
3:15 pm52 °FLight rain. Cloudy.8 mph68%29.80 "Hg10 mi
2:35 pm54 °FOvercast.8 mph56%29.79 "Hg10 mi
2:15 pm54 °FMore clouds than sun.13 mph54%29.79 "Hg10 mi
1:55 pm55 °FMostly cloudy.9 mph54%29.79 "Hg10 mi
1:35 pm55 °FPartly sunny.10 mph55%29.79 "Hg10 mi
1:15 pm54 °FPartly sunny.10 mph56%29.79 "Hg10 mi
12:55 pm55 °FPartly sunny.10 mph57%29.79 "Hg10 mi
12:35 pm56 °FScattered clouds.10 mph57%29.79 "Hg10 mi
12:15 pm55 °FScattered clouds.9 mph57%29.79 "Hg10 mi
11:55 am54 °FSunny.10 mph59%29.79 "Hg10 mi
11:35 am53 °FSunny.12 mph61%29.79 "Hg10 mi
11:15 am52 °FSunny.12 mph63%29.79 "Hg10 mi
10:55 am51 °FSunny.12 mph66%29.79 "Hg10 mi
10:35 am50 °FSunny.13 mph69%29.79 "Hg10 mi
10:15 am48 °FSunny.14 mph72%29.79 "Hg10 mi
9:55 am47 °FSunny.10 mph74%29.79 "Hg10 mi
9:35 am46 °FSunny.10 mph78%29.79 "Hg10 mi
9:15 am45 °FSunny.13 mph80%29.79 "Hg10 mi
8:55 am44 °FSunny.9 mph82%29.79 "Hg10 mi
8:35 am43 °FSunny.9 mph84%29.79 "Hg10 mi
8:15 am42 °FSunny.6 mph86%29.78 "Hg10 mi
7:55 am43 °FClear.6 mph85%29.78 "Hg10 mi
7:35 am42 °FClear.8 mph86%29.78 "Hg10 mi
7:15 am43 °FClear.9 mph84%29.78 "Hg10 mi
6:55 am43 °FClear.6 mph84%29.78 "Hg10 mi
6:35 am44 °FPassing clouds.5 mph83%29.77 "Hg10 mi
6:15 am45 °FPartly cloudy.5 mph83%29.78 "Hg10 mi
5:55 am46 °FMostly cloudy.5 mph80%29.77 "Hg10 mi
4:55 am45 °FMostly cloudy.5 mph93%29.77 "Hg10 mi
4:35 am45 °FMostly cloudy.5 mph93%29.77 "Hg10 mi
3:55 am44 °FPartly cloudy.5 mph93%29.77 "Hg10 mi
3:35 am45 °FPartly cloudy.5 mph90%29.78 "Hg10 mi
3:15 am46 °FMostly cloudy.6 mph89%29.77 "Hg10 mi
Weather by CustomWeather, © 2021

See weather overview